Lichtenfels Airport


Codes: EDQL/
Name: Lichtenfels Airport
City: Lichtenfels
Country: Germany
Elevation: 853 ft.
Website:
Wikipedia:

Photos at Lichtenfels Airport


   Photos courtesy of SpottingLog. You can add your own sightings and photos by signing up for a free trial today.



No photos found.

Weather at Lichtenfels Airport


Time (UTC)DescriptionTempratureWindCloud coverageVisibilityPressureHumidity
21-Feb-2024 03:00Overcast Clouds6°C9 mph, SW100%10000m1022hPa77%
21-Feb-2024 06:00Overcast Clouds5°C7 mph, SW98%10000m1022hPa87%
21-Feb-2024 09:00Overcast Clouds7°C9 mph, SW98%10000m1022hPa84%
21-Feb-2024 12:00Overcast Clouds9°C11 mph, SW99%10000m1020hPa68%
21-Feb-2024 15:00Overcast Clouds9°C9 mph, SW100%10000m1017hPa72%
21-Feb-2024 18:00Overcast Clouds7°C4 mph, S100%10000m1015hPa81%
21-Feb-2024 21:00Overcast Clouds7°C7 mph, SW100%10000m1013hPa80%
22-Feb-2024 00:00Light Rain6°C13 mph, SW100%10000m1010hPa90%
22-Feb-2024 03:00Light Rain7°C13 mph, SW100%10000m1006hPa93%
22-Feb-2024 06:00Light Rain7°C13 mph, SW100%10000m1004hPa93%
22-Feb-2024 09:00Light Rain8°C11 mph, SW100%10000m1002hPa94%
22-Feb-2024 12:00Light Rain9°C13 mph, SW100%10000m999hPa89%
22-Feb-2024 15:00Light Rain9°C13 mph, SW100%10000m996hPa88%
22-Feb-2024 18:00Moderate Rain9°C16 mph, SW100%8382m993hPa90%
22-Feb-2024 21:00Moderate Rain10°C18 mph, SW100%8794m993hPa88%
23-Feb-2024 00:00Light Rain8°C16 mph, W100%10000m997hPa79%
23-Feb-2024 03:00Light Rain6°C11 mph, SW100%10000m998hPa82%
23-Feb-2024 06:00Light Rain4°C9 mph, SW99%10000m1000hPa84%
23-Feb-2024 09:00Overcast Clouds4°C9 mph, SW100%10000m1002hPa78%
23-Feb-2024 12:00Overcast Clouds6°C9 mph, SW100%10000m1002hPa67%
23-Feb-2024 15:00Overcast Clouds6°C7 mph, S100%10000m1001hPa69%
23-Feb-2024 18:00Overcast Clouds4°C4 mph, SE100%10000m1001hPa81%
23-Feb-2024 21:00Overcast Clouds3°C2 mph, SE100%10000m1001hPa88%
24-Feb-2024 00:00Overcast Clouds2°C2 mph, SE100%10000m1000hPa88%
24-Feb-2024 03:00Overcast Clouds2°C4 mph, SE100%10000m1000hPa91%
24-Feb-2024 06:00Overcast Clouds2°C4 mph, SE100%10000m1001hPa90%
24-Feb-2024 09:00Overcast Clouds4°C9 mph, SW100%10000m1003hPa83%
24-Feb-2024 12:00Broken Clouds7°C13 mph, SW82%10000m1004hPa61%
24-Feb-2024 15:00Light Rain6°C9 mph, SW100%10000m1005hPa71%
24-Feb-2024 18:00Light Rain3°C2 mph, SE63%10000m1007hPa85%
24-Feb-2024 21:00Broken Clouds3°C4 mph, E83%10000m1008hPa88%
25-Feb-2024 00:00Overcast Clouds2°C2 mph, E91%10000m1008hPa88%
25-Feb-2024 03:00Scattered Clouds1°C4 mph, E32%10000m1007hPa90%
25-Feb-2024 06:00Few Clouds1°C2 mph, SE22%10000m1008hPa91%
25-Feb-2024 09:00Clear Sky5°C7 mph, SW3%10000m1008hPa71%
25-Feb-2024 12:00Scattered Clouds7°C9 mph, SW29%10000m1008hPa67%
25-Feb-2024 15:00Overcast Clouds5°C7 mph, SW89%10000m1007hPa70%
25-Feb-2024 18:00Overcast Clouds3°C2 mph, NE87%10000m1007hPa83%
25-Feb-2024 21:00Scattered Clouds2°C2 mph, NE25%10000m1007hPa87%
26-Feb-2024 00:00Scattered Clouds2°C4 mph, E29%10000m1006hPa88%